Time;durP1;ratioP1;P1;durP2;ratioP2;P2;SDS_P1;SDS_P2;PMS_P1;PMS_P2;Temp;Humidity;BMP_temperature;BMP_pressure;BME280_temperature;BME280_humidity;BME280_pressure;Samples;Min_cycle;Max_cycle;Signal;HPM_P1;HPM_P2
2022/10/17 00:01:27;;;;;;;4.32;1.70;;;;;;;12.94;100.00;101291.69;4954870;28;20701;-75
2022/10/17 00:03:53;;;;;;;2.03;1.92;;;;;;;12.90;100.00;101285.59;4936006;28;20054;-75
2022/10/17 00:06:20;;;;;;;2.35;1.75;;;;;;;12.85;100.00;101277.75;4937537;29;20035;-77
2022/10/17 00:08:49;;;;;;;2.30;2.10;;;;;;;12.80;100.00;101273.41;4953389;28;20110;-75
2022/10/17 00:11:20;;;;;;;5.88;1.92;;;;;;;12.74;100.00;101279.59;4936833;29;20043;-75
2022/10/17 00:13:50;;;;;;;7.28;2.45;;;;;;;12.70;100.00;101280.50;4935064;28;20054;-76
2022/10/17 00:16:28;;;;;;;2.42;2.05;;;;;;;12.66;100.00;101268.25;4922873;29;20043;-78
2022/10/17 00:18:55;;;;;;;2.65;2.08;;;;;;;12.65;100.00;101272.66;4927841;28;20058;-76
2022/10/17 00:21:22;;;;;;;2.10;2.00;;;;;;;12.63;100.00;101282.28;4915594;29;20055;-78
2022/10/17 00:23:49;;;;;;;4.30;2.55;;;;;;;12.60;100.00;101270.94;4952370;28;20040;-79
2022/10/17 00:26:16;;;;;;;2.15;2.05;;;;;;;12.61;100.00;101268.31;4916490;29;20051;-80
2022/10/17 00:28:50;;;;;;;3.15;2.08;;;;;;;12.61;100.00;101276.19;4936818;28;20055;-75
2022/10/17 00:31:19;;;;;;;2.10;2.00;;;;;;;12.60;100.00;101261.31;4948130;28;20048;-77
2022/10/17 00:33:45;;;;;;;2.00;1.90;;;;;;;12.59;100.00;101264.81;4919637;28;20063;-75
2022/10/17 00:36:19;;;;;;;2.47;1.80;;;;;;;12.60;100.00;101261.31;4934340;29;20123;-76
2022/10/17 00:38:49;;;;;;;2.85;1.88;;;;;;;12.60;100.00;101266.56;4931231;28;20055;-76
2022/10/17 00:41:20;;;;;;;4.53;1.80;;;;;;;12.58;100.00;101270.97;4931356;29;20047;-79
2022/10/17 00:44:06;;;;;;;2.65;1.77;;;;;;;12.58;100.00;101271.81;4951423;28;20047;-76
2022/10/17 00:46:38;;;;;;;2.00;1.70;;;;;;;12.57;100.00;101275.34;4918210;28;20050;-76
2022/10/17 00:49:11;;;;;;;2.42;2.22;;;;;;;12.58;100.00;101273.59;4944018;28;20043;-82
2022/10/17 00:51:43;;;;;;;1.85;1.75;;;;;;;12.55;100.00;101266.59;4935838;28;20123;-77
2022/10/17 00:54:14;;;;;;;3.08;1.75;;;;;;;12.54;100.00;101264.84;4940212;28;20047;-76
2022/10/17 00:56:40;;;;;;;2.80;1.63;;;;;;;12.51;100.00;101261.38;4933550;28;20047;-76
2022/10/17 00:59:12;;;;;;;3.70;1.90;;;;;;;12.49;100.00;101266.66;4935294;29;20054;-76
2022/10/17 01:01:43;;;;;;;2.53;1.92;;;;;;;12.47;100.00;101264.91;4933917;28;20057;-76
2022/10/17 01:04:10;;;;;;;2.42;1.75;;;;;;;12.47;100.00;101264.91;4936340;29;20047;-75
2022/10/17 01:06:36;;;;;;;6.22;1.77;;;;;;;12.50;100.00;101263.16;4933293;28;20050;-76
2022/10/17 01:09:03;;;;;;;1.80;1.70;;;;;;;12.47;100.00;101259.66;4931238;29;20053;-75
2022/10/17 01:12:06;;;;;;;3.22;2.15;;;;;;;12.47;100.00;101263.16;4952239;28;20042;-79
2022/10/17 01:15:14;;;;;;;3.17;1.75;;;;;;;12.45;100.00;101257.06;4954700;28;20161;-76
2022/10/17 01:18:01;;;;;;;2.97;2.08;;;;;;;12.41;100.00;101268.44;4955822;28;20054;-76
2022/10/17 01:20:38;;;;;;;2.25;2.10;;;;;;;12.38;100.00;101257.97;4953453;28;20039;-76
2022/10/17 01:23:51;;;;;;;2.85;2.08;;;;;;;12.33;100.00;101258.00;4955990;28;20049;-79
2022/10/17 01:26:33;;;;;;;6.43;3.05;;;;;;;12.34;100.00;101258.88;4953611;28;20047;-76
2022/10/17 01:29:31;;;;;;;2.05;1.75;;;;;;;12.32;100.00;101265.88;4958547;28;20066;-76
2022/10/17 01:32:11;;;;;;;2.38;2.08;;;;;;;12.28;100.00;101256.28;4952060;28;20387;-76
2022/10/17 01:35:20;;;;;;;1.75;1.65;;;;;;;12.33;100.00;101255.38;4921991;28;20090;-78
2022/10/17 01:37:59;;;;;;;1.70;1.60;;;;;;;12.38;100.00;101250.97;4904445;28;20067;-81
2022/10/17 01:40:34;;;;;;;2.08;1.80;;;;;;;12.40;100.00;101256.22;4939021;29;20680;-73
2022/10/17 01:43:25;;;;;;;1.67;1.58;;;;;;;12.40;100.00;101251.81;4953738;28;20047;-77
2022/10/17 01:46:24;;;;;;;3.22;2.72;;;;;;;12.41;100.00;101250.94;4937174;28;20050;-79
2022/10/17 01:48:53;;;;;;;6.68;1.70;;;;;;;12.38;100.00;101245.72;4919896;28;20081;-77
2022/10/17 01:51:42;;;;;;;1.65;1.55;;;;;;;12.38;100.00;101252.72;4921635;29;20051;-77
2022/10/17 01:54:18;;;;;;;1.92;1.83;;;;;;;12.38;100.00;101244.84;4938674;29;20042;-75
2022/10/17 01:56:48;;;;;;;2.03;1.83;;;;;;;12.43;100.00;101248.31;4922425;28;20063;-77
2022/10/17 01:59:22;;;;;;;3.60;2.50;;;;;;;12.47;100.00;101243.91;4943436;29;20043;-78
2022/10/17 02:01:52;;;;;;;6.13;2.00;;;;;;;12.52;100.00;101237.72;4944309;28;20058;-76
2022/10/17 02:04:19;;;;;;;1.90;1.80;;;;;;;12.54;100.00;101242.97;4943316;28;20417;-76
2022/10/17 02:06:46;;;;;;;1.60;1.50;;;;;;;12.58;100.00;101234.19;4922451;28;20908;-76
2022/10/17 02:09:26;;;;;;;2.42;2.22;;;;;;;12.61;100.00;101228.06;4933843;29;20047;-75
2022/10/17 02:12:30;;;;;;;2.08;1.88;;;;;;;12.61;100.00;101223.66;4935129;29;20043;-76
2022/10/17 02:15:23;;;;;;;3.22;1.77;;;;;;;12.61;100.00;101220.16;4954059;29;20046;-76
2022/10/17 02:18:36;;;;;;;20.63;2.80;;;;;;;12.63;100.00;101221.00;4957346;29;20044;-75
2022/10/17 02:21:14;;;;;;;1.95;1.85;;;;;;;12.63;100.00;101221.88;4952968;28;20398;-75
2022/10/17 02:24:23;;;;;;;2.40;2.17;;;;;;;12.64;100.00;101214.88;4933566;29;20050;-75
2022/10/17 02:27:08;;;;;;;3.70;2.15;;;;;;;12.62;100.00;101211.38;4949950;29;20059;-75
2022/10/17 02:29:45;;;;;;;2.80;2.50;;;;;;;12.63;100.00;101213.13;4944029;29;20043;-75
2022/10/17 02:33:03;;;;;;;3.63;2.10;;;;;;;12.63;100.00;101200.84;4951974;29;20098;-76
2022/10/17 02:35:36;;;;;;;8.35;3.10;;;;;;;12.63;100.00;101200.00;4937755;29;20047;-75
2022/10/17 02:38:05;;;;;;;3.65;3.10;;;;;;;12.65;100.00;101211.38;4952559;28;20478;-75
2022/10/17 02:40:32;;;;;;;2.30;2.13;;;;;;;12.66;100.00;101203.47;4917217;29;20044;-77
2022/10/17 02:43:00;;;;;;;2.78;2.58;;;;;;;12.65;100.00;101214.00;4936341;29;20058;-77
2022/10/17 02:45:29;;;;;;;3.78;2.28;;;;;;;12.65;100.00;101208.75;4936675;29;20071;-75
2022/10/17 02:48:32;;;;;;;3.20;2.80;;;;;;;12.67;100.00;101210.47;4935538;29;20039;-78
2022/10/17 02:51:27;;;;;;;2.75;2.53;;;;;;;12.75;100.00;101207.78;4952052;29;20126;-77
2022/10/17 02:54:20;;;;;;;2.80;2.53;;;;;;;12.80;100.00;101211.25;4932821;29;20039;-78
2022/10/17 02:57:21;;;;;;;3.63;3.35;;;;;;;12.84;100.00;101206.81;4936276;29;20367;-77
2022/10/17 02:59:51;;;;;;;5.25;2.88;;;;;;;12.82;100.00;101206.81;4952118;29;20048;-75
2022/10/17 03:02:18;;;;;;;3.22;3.03;;;;;;;12.84;100.00;101199.81;4930072;29;20066;-75
2022/10/17 03:04:46;;;;;;;5.88;3.63;;;;;;;12.84;100.00;101198.94;4945206;29;20047;-76
2022/10/17 03:07:13;;;;;;;2.42;2.22;;;;;;;12.84;100.00;101202.44;4919769;29;20130;-78
2022/10/17 03:09:41;;;;;;;3.53;3.33;;;;;;;12.84;100.00;101207.69;4951898;29;20386;-78
2022/10/17 03:12:07;;;;;;;13.27;3.17;;;;;;;12.84;100.00;101212.94;4919370;29;20792;-76
2022/10/17 03:14:34;;;;;;;3.60;3.00;;;;;;;12.85;100.00;101211.19;4931621;29;20031;-81
2022/10/17 03:17:00;;;;;;;2.92;2.72;;;;;;;12.83;100.00;101210.34;4952060;29;20146;-76
2022/10/17 03:19:27;;;;;;;3.72;2.88;;;;;;;12.81;100.00;101206.84;4933191;29;20039;-77
2022/10/17 03:21:55;;;;;;;3.03;2.72;;;;;;;12.79;100.00;101216.50;4944628;29;20059;-77
2022/10/17 03:24:23;;;;;;;3.60;3.15;;;;;;;12.77;100.00;101200.75;4948426;29;20087;-79
2022/10/17 03:26:51;;;;;;;3.13;2.85;;;;;;;12.77;100.00;101206.00;4935009;29;20055;-76
2022/10/17 03:29:18;;;;;;;3.45;3.15;;;;;;;12.76;100.00;101199.00;4950425;29;20159;-80
2022/10/17 03:31:44;;;;;;;4.38;3.97;;;;;;;12.78;100.00;101210.38;4933975;29;20142;-77
2022/10/17 03:34:15;;;;;;;5.32;3.58;;;;;;;12.78;100.00;101204.25;4952398;29;20054;-76
2022/10/17 03:36:42;;;;;;;4.40;4.00;;;;;;;12.76;100.00;101212.13;4950788;28;20043;-75
2022/10/17 03:39:08;;;;;;;5.53;3.45;;;;;;;12.77;100.00;101211.25;4950808;29;20039;-75
2022/10/17 03:41:35;;;;;;;4.45;4.05;;;;;;;12.74;100.00;101213.91;4951222;29;20097;-74
2022/10/17 03:44:02;;;;;;;6.32;4.55;;;;;;;12.72;100.00;101207.78;4949211;29;20133;-80
2022/10/17 03:46:28;;;;;;;5.63;3.97;;;;;;;12.70;100.00;101212.22;4950435;28;20394;-75
2022/10/17 03:48:55;;;;;;;4.57;4.10;;;;;;;12.66;100.00;101208.72;4944536;29;20360;-77
2022/10/17 03:51:21;;;;;;;5.07;4.60;;;;;;;12.71;100.00;101209.56;4966335;28;20694;-78
2022/10/17 03:53:48;;;;;;;4.78;4.15;;;;;;;12.72;100.00;101210.41;4935221;29;20047;-76
2022/10/17 03:56:21;;;;;;;10.30;4.82;;;;;;;12.70;100.00;101209.59;4951329;29;20050;-76
2022/10/17 03:58:48;;;;;;;4.05;3.33;;;;;;;12.66;100.00;101213.97;4952585;28;20123;-75
2022/10/17 04:01:17;;;;;;;4.05;3.28;;;;;;;12.63;100.00;101208.75;4936431;28;20043;-78
2022/10/17 04:03:44;;;;;;;5.63;4.18;;;;;;;12.61;100.00;101209.66;4951258;29;20447;-76
2022/10/17 04:06:14;;;;;;;6.10;3.95;;;;;;;12.61;100.00;101199.16;4950538;29;20511;-80
2022/10/17 04:08:41;;;;;;;3.08;2.88;;;;;;;12.55;100.00;101205.31;4950695;28;20036;-77
2022/10/17 04:11:10;;;;;;;4.60;3.85;;;;;;;12.53;100.00;101200.09;4950719;29;20047;-75
2022/10/17 04:13:37;;;;;;;3.75;3.40;;;;;;;12.55;100.00;101207.94;4950021;29;20054;-77
2022/10/17 04:16:11;;;;;;;6.85;4.18;;;;;;;12.54;100.00;101201.84;4933387;29;20799;-79
2022/10/17 04:18:38;;;;;;;5.38;3.50;;;;;;;12.55;100.00;101210.56;4944863;28;20418;-77
2022/10/17 04:21:06;;;;;;;5.68;3.70;;;;;;;12.52;100.00;101216.72;4946898;28;20062;-77
2022/10/17 04:23:34;;;;;;;3.92;3.55;;;;;;;12.52;100.00;101213.22;4930795;29;20047;-76
2022/10/17 04:26:02;;;;;;;3.67;3.42;;;;;;;12.50;100.00;101218.50;4952678;29;20395;-77
2022/10/17 04:28:30;;;;;;;5.07;3.53;;;;;;;12.54;100.00;101217.59;4951139;29;20039;-74
2022/10/17 04:31:12;;;;;;;3.80;3.45;;;;;;;12.55;100.00;101216.72;4949718;28;20058;-79
2022/10/17 04:33:41;;;;;;;3.85;3.33;;;;;;;12.54;100.00;101214.97;4965013;28;20057;-76
2022/10/17 04:36:15;;;;;;;3.95;3.28;;;;;;;12.55;100.00;101215.81;4950424;29;20102;-75
2022/10/17 04:38:42;;;;;;;5.22;4.18;;;;;;;12.54;100.00;101217.59;4948029;29;20042;-77
2022/10/17 04:41:14;;;;;;;5.70;3.33;;;;;;;12.53;100.00;101214.97;4944579;29;20050;-76
2022/10/17 04:43:40;;;;;;;4.05;3.75;;;;;;;12.54;100.00;101211.44;4953364;28;20126;-75
2022/10/17 04:46:13;;;;;;;4.95;3.50;;;;;;;12.54;100.00;101211.44;4949562;29;20058;-76
2022/10/17 04:48:40;;;;;;;4.32;3.95;;;;;;;12.53;100.00;101214.97;4955439;28;20047;-80
2022/10/17 04:51:12;;;;;;;4.28;3.88;;;;;;;12.52;100.00;101216.72;4955315;29;20776;-76
2022/10/17 04:53:43;;;;;;;4.30;3.55;;;;;;;12.49;100.00;101222.00;4954134;29;20044;-75
2022/10/17 04:56:17;;;;;;;3.03;2.80;;;;;;;12.42;100.00;101220.28;4954087;28;20058;-75
2022/10/17 04:58:45;;;;;;;4.68;3.90;;;;;;;12.40;100.00;101220.31;4937773;29;20821;-77
2022/10/17 05:01:15;;;;;;;4.28;3.88;;;;;;;12.43;100.00;101226.44;4955705;28;20055;-76
2022/10/17 05:03:42;;;;;;;5.82;4.05;;;;;;;12.43;100.00;101227.28;4938315;29;20039;-76
2022/10/17 05:06:16;;;;;;;4.50;4.10;;;;;;;12.43;100.00;101218.56;4952914;29;20119;-75
2022/10/17 05:08:43;;;;;;;6.53;4.45;;;;;;;12.44;100.00;101215.03;4953129;29;20055;-75
2022/10/17 05:11:22;;;;;;;6.75;3.88;;;;;;;12.47;100.00;101222.91;4953208;29;20054;-75
2022/10/17 05:14:01;;;;;;;5.10;4.55;;;;;;;12.43;100.00;101215.94;4965769;28;20051;-76
2022/10/17 05:16:28;;;;;;;4.82;3.22;;;;;;;12.40;100.00;101219.44;4950660;29;20051;-76
2022/10/17 05:18:57;;;;;;;7.40;5.35;;;;;;;12.35;100.00;101227.34;4952288;28;20053;-75
2022/10/17 05:21:26;;;;;;;3.22;2.83;;;;;;;12.31;100.00;101227.41;4937701;29;20051;-78
2022/10/17 05:23:53;;;;;;;6.35;2.92;;;;;;;12.28;100.00;101233.53;4953630;29;20482;-79
2022/10/17 05:26:20;;;;;;;3.25;2.83;;;;;;;12.29;100.00;101229.16;4937312;29;20142;-77
2022/10/17 05:28:53;;;;;;;5.43;3.70;;;;;;;12.35;100.00;101226.50;4951945;29;20126;-79
2022/10/17 05:31:20;;;;;;;6.83;4.00;;;;;;;12.46;100.00;101227.25;4953008;29;20411;-80
2022/10/17 05:33:49;;;;;;;6.35;4.20;;;;;;;12.53;100.00;101226.34;4936936;29;20295;-76
2022/10/17 05:36:16;;;;;;;5.65;3.95;;;;;;;12.62;100.00;101224.50;4969788;28;20164;-78
2022/10/17 05:38:42;;;;;;;4.43;3.70;;;;;;;12.66;100.00;101223.59;4953342;29;20077;-76
2022/10/17 05:41:10;;;;;;;3.78;3.50;;;;;;;12.68;100.00;101225.34;4953038;28;20039;-75
2022/10/17 05:43:36;;;;;;;4.68;3.60;;;;;;;12.68;100.00;101221.84;4968598;28;20756;-74
2022/10/17 05:46:05;;;;;;;4.65;3.90;;;;;;;12.73;100.00;101214.78;4953915;29;20118;-77
2022/10/17 05:48:32;;;;;;;5.72;3.90;;;;;;;12.78;100.00;101218.25;4950575;29;20127;-75
2022/10/17 05:51:04;;;;;;;5.40;3.58;;;;;;;12.84;100.00;101209.44;4938543;29;20482;-76
2022/10/17 05:53:33;;;;;;;7.47;4.15;;;;;;;12.90;100.00;101212.00;4947225;29;20040;-75
2022/10/17 05:56:02;;;;;;;3.20;3.00;;;;;;;12.95;100.00;101211.97;4953342;29;20378;-77
2022/10/17 05:58:29;;;;;;;3.90;2.85;;;;;;;13.01;100.00;101218.03;4938279;29;20043;-75
2022/10/17 06:01:05;;;;;;;3.70;3.38;;;;;;;13.05;100.00;101216.25;4954666;29;20050;-76
2022/10/17 06:03:33;;;;;;;4.50;3.28;;;;;;;13.03;100.00;101216.25;4945827;29;20448;-75
2022/10/17 06:06:08;;;;;;;4.70;2.85;;;;;;;13.13;100.00;101209.16;4955108;28;20102;-75
2022/10/17 06:08:34;;;;;;;6.53;3.63;;;;;;;13.15;100.00;101212.63;4953240;28;20048;-77
2022/10/17 06:11:01;;;;;;;3.65;3.00;;;;;;;13.20;100.00;101223.97;4950069;29;20035;-75
2022/10/17 06:13:28;;;;;;;3.45;2.78;;;;;;;13.22;100.00;101216.94;4955700;29;20106;-76
2022/10/17 06:15:54;;;;;;;3.15;2.80;;;;;;;13.26;100.00;101217.78;4954571;29;20047;-77
2022/10/17 06:18:21;;;;;;;3.20;2.88;;;;;;;13.28;100.00;101223.88;4939073;29;20078;-74
2022/10/17 06:20:48;;;;;;;4.20;3.03;;;;;;;13.28;100.00;101223.88;4955926;28;20062;-75
2022/10/17 06:23:14;;;;;;;4.85;2.65;;;;;;;13.33;100.00;101229.97;4925918;29;20110;-75
2022/10/17 06:25:41;;;;;;;3.88;2.55;;;;;;;13.34;100.00;101223.81;4944703;29;20058;-76
2022/10/17 06:28:08;;;;;;;3.83;2.50;;;;;;;13.37;100.00;101225.56;4946345;29;20073;-75
2022/10/17 06:30:34;;;;;;;3.83;2.92;;;;;;;13.40;100.00;101225.53;4946995;29;20031;-76
2022/10/17 06:33:01;;;;;;;2.60;2.42;;;;;;;13.45;100.00;101236.00;4970103;29;20450;-76
2022/10/17 06:35:27;;;;;;;4.32;3.15;;;;;;;13.49;100.00;101235.97;4960202;29;20067;-76
2022/10/17 06:37:54;;;;;;;3.10;2.63;;;;;;;13.53;100.00;101237.66;4953379;29;20054;-76
2022/10/17 06:40:20;;;;;;;4.35;3.20;;;;;;;13.63;100.00;101240.19;4964611;29;20067;-76
2022/10/17 06:42:48;;;;;;;2.85;2.65;;;;;;;13.69;100.00;101248.88;4944099;29;20051;-77
2022/10/17 06:45:15;;;;;;;3.00;2.45;;;;;;;13.76;100.00;101259.31;4941017;29;20509;-75
2022/10/17 06:47:42;;;;;;;2.38;2.28;;;;;;;13.82;100.00;101260.13;4939121;29;20045;-75
2022/10/17 06:50:09;;;;;;;6.43;2.80;;;;;;;13.88;100.00;101253.88;4922042;29;20055;-80
2022/10/17 06:52:35;;;;;;;2.40;2.22;;;;;;;13.94;100.00;101266.13;4940753;29;20524;-75
2022/10/17 06:55:04;;;;;;;5.68;2.72;;;;;;;14.01;100.00;101267.75;4940764;29;20042;-78
2022/10/17 06:57:30;;;;;;;3.92;2.72;;;;;;;14.07;100.00;101258.00;4936883;29;20047;-79
2022/10/17 06:59:57;;;;;;;2.67;2.47;;;;;;;14.20;100.00;101265.75;4942340;29;20076;-77
2022/10/17 07:02:24;;;;;;;6.05;2.22;;;;;;;14.34;100.00;101276.97;4907221;29;20047;-78
2022/10/17 07:04:51;;;;;;;3.22;2.95;;;;;;;14.43;100.00;101268.06;4939543;29;20043;-76
2022/10/17 07:07:17;;;;;;;3.10;2.80;;;;;;;14.47;100.00;101271.50;4934676;29;20059;-76
2022/10/17 07:09:44;;;;;;;4.13;3.20;;;;;;;14.49;100.00;101275.84;4949071;28;20047;-77
2022/10/17 07:12:11;;;;;;;4.20;2.90;;;;;;;14.55;100.00;101275.75;4935540;29;20126;-75
2022/10/17 07:14:38;;;;;;;4.13;3.13;;;;;;;14.63;100.00;101277.41;4912345;29;20065;-76
2022/10/17 07:17:04;;;;;;;3.38;2.05;;;;;;;14.71;100.00;101281.69;4934684;29;20110;-81
2022/10/17 07:19:31;;;;;;;2.90;2.67;;;;;;;14.83;100.00;101288.50;4935338;29;20498;-76
2022/10/17 07:21:57;;;;;;;8.70;2.72;;;;;;;14.98;100.00;101289.16;4928301;29;20059;-77
2022/10/17 07:24:24;;;;;;;7.53;2.55;;;;;;;15.13;100.00;101293.31;4937314;29;20054;-76
2022/10/17 07:26:50;;;;;;;2.90;2.70;;;;;;;15.27;100.00;101291.28;4953485;28;20516;-77
2022/10/17 07:29:17;;;;;;;2.80;2.60;;;;;;;15.41;100.00;101304.25;4951762;29;20704;-77
2022/10/17 07:31:47;;;;;;;4.95;3.92;;;;;;;15.54;100.00;101294.31;4952333;29;20043;-76
2022/10/17 07:34:14;;;;;;;4.25;2.10;;;;;;;15.69;100.00;101293.13;4951812;29;20070;-75
2022/10/17 07:36:40;;;;;;;2.85;2.20;;;;;;;15.85;100.00;101296.34;4948164;28;20715;-78
2022/10/17 07:39:07;;;;;;;5.90;2.83;;;;;;;15.99;100.00;101302.22;4949304;29;20047;-77
2022/10/17 07:41:33;;;;;;;2.33;1.98;;;;;;;16.11;100.00;101294.94;4952187;29;20039;-78
2022/10/17 07:44:00;;;;;;;2.83;1.98;;;;;;;16.20;100.00;101294.72;4934565;29;20047;-76
2022/10/17 07:46:26;;;;;;;4.80;2.17;;;;;;;16.29;100.00;101293.66;4950850;29;20390;-78
2022/10/17 07:48:53;;;;;;;3.40;2.35;;;;;;;16.36;100.00;101293.50;4950046;29;20078;-81
2022/10/17 07:51:20;;;;;;;5.10;2.50;;;;;;;16.42;100.00;101296.91;4948813;29;20050;-81
2022/10/17 07:53:48;;;;;;;3.65;2.05;;;;;;;16.48;100.00;101296.78;4949637;29;20090;-78
2022/10/17 07:56:14;;;;;;;5.28;2.10;;;;;;;16.52;100.00;101295.78;4935437;29;20051;-76
2022/10/17 07:58:42;;;;;;;3.78;2.25;;;;;;;16.57;100.00;101293.03;4950928;28;20503;-78
2022/10/17 08:01:13;;;;;;;6.15;2.35;;;;;;;16.63;100.00;101296.38;4953546;29;20048;-81
2022/10/17 08:03:41;;;;;;;4.07;2.22;;;;;;;16.71;100.00;101306.78;4952445;29;20483;-78
2022/10/17 08:06:08;;;;;;;2.72;2.10;;;;;;;16.76;100.00;101304.88;4952246;28;20149;-75
2022/10/17 08:08:34;;;;;;;5.03;2.45;;;;;;;16.84;100.00;101302.94;4934138;29;20039;-79
2022/10/17 08:11:05;;;;;;;2.58;2.10;;;;;;;16.96;100.00;101307.09;4951502;29;20047;-80
2022/10/17 08:13:32;;;;;;;4.43;2.75;;;;;;;17.06;100.00;101298.91;4965051;28;20503;-78
2022/10/17 08:16:06;;;;;;;4.43;2.40;;;;;;;17.16;100.00;101305.72;4947402;28;20051;-77
2022/10/17 08:18:33;;;;;;;2.90;1.80;;;;;;;17.25;100.00;101300.19;4947196;29;20046;-76
2022/10/17 08:21:01;;;;;;;2.67;1.90;;;;;;;17.36;100.00;101306.06;4950704;29;20063;-80
2022/10/17 08:23:29;;;;;;;3.35;1.88;;;;;;;17.47;100.00;101303.13;4952451;28;20047;-77
2022/10/17 08:26:00;;;;;;;4.90;2.80;;;;;;;17.61;100.00;101296.56;4949106;29;20102;-81
2022/10/17 08:28:27;;;;;;;7.50;3.22;;;;;;;17.71;100.00;101300.69;4951521;29;20031;-75
2022/10/17 08:30:54;;;;;;;9.52;2.85;;;;;;;17.79;100.00;101303.97;4950439;29;20126;-78
2022/10/17 08:33:20;;;;;;;4.05;2.45;;;;;;;17.88;100.00;101304.63;4967436;28;20039;-77
2022/10/17 08:35:47;;;;;;;6.30;2.88;;;;;;;17.91;99.90;101300.09;4954340;28;20047;-75
2022/10/17 08:38:13;;;;;;;3.35;2.05;;;;;;;18.03;99.61;101306.88;4954554;28;20047;-75
2022/10/17 08:40:41;;;;;;;6.93;2.75;;;;;;;18.13;97.93;101295.09;4949122;29;20103;-76
2022/10/17 08:43:28;;;;;;;17.08;2.97;;;;;;;18.25;97.58;101292.97;4953306;29;20058;-75
2022/10/17 08:46:01;;;;;;;73.47;9.85;;;;;;;18.38;95.59;101296.09;4952996;29;20119;-77
2022/10/17 08:48:32;;;;;;;3.00;2.63;;;;;;;18.46;94.05;101299.38;4952989;29;20138;-79
2022/10/17 08:51:06;;;;;;;15.65;4.65;;;;;;;18.50;94.23;101295.72;4951433;29;20055;-78
2022/10/17 08:53:41;;;;;;;11.70;3.58;;;;;;;18.54;92.44;101292.06;4949524;29;20418;-78
2022/10/17 08:56:23;;;;;;;9.15;2.45;;;;;;;18.63;92.40;101299.72;4949889;29;20047;-77
2022/10/17 08:58:50;;;;;;;3.50;1.77;;;;;;;18.70;90.77;101284.47;4951891;29;20051;-77
2022/10/17 09:01:59;;;;;;;4.07;2.28;;;;;;;18.70;90.56;101283.59;4950064;29;20043;-75
2022/10/17 09:05:08;;;;;;;2.70;1.80;;;;;;;18.76;90.93;101280.72;4952901;28;20075;-79
2022/10/17 09:08:05;;;;;;;2.42;2.25;;;;;;;18.73;90.58;101273.75;4949411;29;20048;-75
2022/10/17 09:10:51;;;;;;;4.60;2.03;;;;;;;18.78;91.13;101273.59;4952146;29;20036;-78
2022/10/17 09:13:26;;;;;;;6.40;2.20;;;;;;;18.84;90.06;101273.41;4951534;29;20039;-77
2022/10/17 09:16:29;;;;;;;2.20;1.73;;;;;;;18.85;88.95;101278.66;4952058;29;20054;-79
2022/10/17 09:19:36;;;;;;;7.03;2.23;;;;;;;18.87;90.37;101278.59;4953673;29;20090;-81
2022/10/17 09:22:12;;;;;;;5.47;2.80;;;;;;;18.92;89.31;101283.78;4914856;29;20143;-80
2022/10/17 09:24:57;;;;;;;2.60;2.22;;;;;;;18.96;89.29;101282.75;4945210;28;20517;-74
2022/10/17 09:27:42;;;;;;;2.72;2.28;;;;;;;18.97;89.78;101274.75;4952890;28;20099;-81
2022/10/17 09:30:54;;;;;;;2.85;2.25;;;;;;;19.07;88.34;101279.72;4938950;29;20071;-76
2022/10/17 09:33:27;;;;;;;6.28;3.22;;;;;;;19.08;88.61;101281.47;4947472;28;20046;-77
2022/10/17 09:35:57;;;;;;;5.30;1.80;;;;;;;19.11;87.64;101294.63;4955727;29;20041;-79
2022/10/17 09:38:39;;;;;;;2.85;2.40;;;;;;;19.13;87.62;101292.78;4954183;29;20043;-77
2022/10/17 09:41:15;;;;;;;2.60;2.40;;;;;;;19.25;86.80;101308.28;4935110;29;20043;-76
2022/10/17 09:43:41;;;;;;;1.90;1.70;;;;;;;19.35;86.37;101300.88;4954156;29;20159;-77
2022/10/17 09:46:22;;;;;;;1.98;1.88;;;;;;;19.48;85.36;101298.66;4949983;29;20058;-77
2022/10/17 09:49:12;;;;;;;2.60;2.15;;;;;;;19.60;84.30;101298.19;4968571;28;20075;-76
2022/10/17 09:51:39;;;;;;;4.03;2.15;;;;;;;19.72;84.25;101302.19;4954650;29;20050;-77
2022/10/17 09:54:23;;;;;;;2.42;1.63;;;;;;;19.80;82.94;101301.91;4937059;29;20509;-76
2022/10/17 09:57:09;;;;;;;3.53;2.15;;;;;;;19.95;83.17;101309.34;4953520;28;20047;-76
2022/10/17 09:59:46;;;;;;;2.05;1.80;;;;;;;20.09;82.12;101307.94;4948556;29;20042;-77
2022/10/17 10:02:12;;;;;;;2.85;2.20;;;;;;;20.22;82.28;101306.56;4967258;28;20134;-76
2022/10/17 10:04:55;;;;;;;4.38;1.88;;;;;;;20.24;80.62;101296.72;4951569;29;20154;-75
2022/10/17 10:07:21;;;;;;;3.42;2.10;;;;;;;20.26;81.70;101304.63;4935182;29;20762;-75
2022/10/17 10:09:50;;;;;;;4.40;2.17;;;;;;;20.31;81.21;101300.00;4937042;29;20676;-75
2022/10/17 10:12:32;;;;;;;2.28;2.17;;;;;;;20.38;80.53;101301.50;4955391;29;20039;-75
2022/10/17 10:14:59;;;;;;;2.50;1.77;;;;;;;20.54;80.13;101296.41;4951921;29;20057;-76
2022/10/17 10:17:33;;;;;;;2.63;2.03;;;;;;;20.63;78.85;101296.03;4956096;29;20283;-77
2022/10/17 10:20:24;;;;;;;2.10;1.88;;;;;;;20.75;78.50;101301.81;4951573;29;20052;-77
2022/10/17 10:23:21;;;;;;;5.55;2.20;;;;;;;20.93;77.42;101301.03;4937415;29;20078;-76
2022/10/17 10:26:04;;;;;;;2.00;1.80;;;;;;;20.99;76.37;101295.47;4969719;28;20055;-76
2022/10/17 10:28:34;;;;;;;2.28;1.50;;;;;;;21.07;76.46;101300.47;4955685;28;20038;-76
2022/10/17 10:31:08;;;;;;;2.05;1.58;;;;;;;21.07;76.20;101308.47;4951727;29;20054;-76
2022/10/17 10:33:40;;;;;;;2.15;1.80;;;;;;;21.08;76.00;101309.31;4933949;29;20051;-77
2022/10/17 10:36:08;;;;;;;2.10;1.77;;;;;;;21.17;76.44;101300.06;4951457;28;20110;-79
2022/10/17 10:38:39;;;;;;;2.90;1.58;;;;;;;21.36;75.63;101300.16;4952856;29;20065;-77
2022/10/17 10:41:09;;;;;;;4.82;1.92;;;;;;;21.43;74.58;101301.59;4953768;29;20054;-77
2022/10/17 10:43:41;;;;;;;3.70;2.20;;;;;;;21.40;74.09;101289.28;4953641;29;20394;-76
2022/10/17 10:46:26;;;;;;;3.20;1.90;;;;;;;21.42;74.29;101291.88;4952089;28;20122;-76
2022/10/17 10:48:59;;;;;;;2.70;2.50;;;;;;;21.46;74.14;101293.50;4953835;29;20047;-81
2022/10/17 10:51:47;;;;;;;4.38;2.00;;;;;;;21.52;74.01;101297.66;4954668;29;20040;-75
2022/10/17 10:54:20;;;;;;;2.25;2.05;;;;;;;21.62;72.73;101283.88;4953472;29;20095;-76
2022/10/17 10:56:53;;;;;;;5.38;2.00;;;;;;;21.59;73.11;101289.38;4972625;28;20047;-77
2022/10/17 10:59:41;;;;;;;2.53;1.58;;;;;;;21.55;72.27;101294.88;4955840;29;20050;-76
2022/10/17 11:02:07;;;;;;;4.75;2.00;;;;;;;21.48;72.45;101300.47;4971806;28;20047;-75
2022/10/17 11:04:57;;;;;;;2.33;1.65;;;;;;;21.53;72.93;101302.06;4932335;28;20055;-75
2022/10/17 11:07:52;;;;;;;6.43;2.47;;;;;;;21.64;72.50;101299.78;4928066;29;20051;-77
2022/10/17 11:10:43;;;;;;;3.95;2.20;;;;;;;21.73;71.54;101298.53;4915875;29;20048;-77
2022/10/17 11:13:23;;;;;;;2.10;1.77;;;;;;;21.84;71.78;101298.91;4911615;29;20440;-77
2022/10/17 11:16:20;;;;;;;3.03;1.80;;;;;;;21.95;69.51;101293.06;4906238;29;20056;-77
2022/10/17 11:19:17;;;;;;;2.55;1.60;;;;;;;22.02;67.49;101285.63;4930787;29;20044;-75
2022/10/17 11:22:15;;;;;;;4.78;2.97;;;;;;;21.99;67.32;101291.97;4929951;29;20490;-76
2022/10/17 11:24:55;;;;;;;2.42;1.52;;;;;;;21.92;66.90;101295.88;4902126;29;20056;-76
2022/10/17 11:27:24;;;;;;;2.13;2.03;;;;;;;21.87;67.28;101298.75;4929796;29;20049;-75
2022/10/17 11:29:51;;;;;;;1.90;1.75;;;;;;;21.78;67.52;101307.16;4912836;29;20041;-75
2022/10/17 11:32:40;;;;;;;4.82;1.95;;;;;;;21.68;67.60;101311.19;4915641;29;20048;-75
2022/10/17 11:35:24;;;;;;;3.92;1.75;;;;;;;21.58;67.14;101302.75;4908689;29;20048;-76
2022/10/17 11:38:35;;;;;;;5.88;2.45;;;;;;;21.51;67.62;101306.59;4907645;29;20384;-76
2022/10/17 11:41:04;;;;;;;3.33;1.80;;;;;;;21.49;67.65;101304.00;4913998;29;20063;-77
2022/10/17 11:43:45;;;;;;;5.03;2.40;;;;;;;21.47;66.98;101301.41;4908328;29;20059;-75
2022/10/17 11:46:27;;;;;;;3.90;2.08;;;;;;;21.43;67.90;101305.13;4906336;29;20048;-77
2022/10/17 11:49:14;;;;;;;2.85;1.65;;;;;;;21.45;67.95;101305.91;4920245;29;20059;-78
2022/10/17 11:52:01;;;;;;;1.60;1.40;;;;;;;21.52;67.51;101306.50;4907020;29;20050;-77